sensor_id;sensor_type;location;lat;lon;timestamp;P1;durP1;ratioP1;P2;durP2;ratioP2
80963;SDS011;70425;59.322;13.486;2023-06-10T00:35:10;0.77;;;0.77;;
80963;SDS011;70425;59.322;13.486;2023-06-10T00:38:03;0.70;;;0.70;;
80963;SDS011;70425;59.322;13.486;2023-06-10T00:40:57;0.60;;;0.60;;
80963;SDS011;70425;59.322;13.486;2023-06-10T00:43:47;1.80;;;1.00;;
80963;SDS011;70425;59.322;13.486;2023-06-10T00:46:49;0.70;;;0.70;;
80963;SDS011;70425;59.322;13.486;2023-06-10T00:53:36;0.60;;;0.60;;
80963;SDS011;70425;59.322;13.486;2023-06-10T00:56:30;0.70;;;0.70;;
80963;SDS011;70425;59.322;13.486;2023-06-10T00:59:23;2.20;;;0.70;;
80963;SDS011;70425;59.322;13.486;2023-06-10T01:02:19;0.53;;;0.53;;
80963;SDS011;70425;59.322;13.486;2023-06-10T01:05:14;0.83;;;0.83;;
80963;SDS011;70425;59.322;13.486;2023-06-10T01:08:17;0.80;;;0.80;;
80963;SDS011;70425;59.322;13.486;2023-06-10T01:11:13;0.73;;;0.70;;
80963;SDS011;70425;59.322;13.486;2023-06-10T01:17:27;0.63;;;0.63;;
80963;SDS011;70425;59.322;13.486;2023-06-10T01:20:23;1.30;;;0.80;;
80963;SDS011;70425;59.322;13.486;2023-06-10T01:23:30;0.90;;;0.70;;
80963;SDS011;70425;59.322;13.486;2023-06-10T01:26:25;0.60;;;0.57;;
80963;SDS011;70425;59.322;13.486;2023-06-10T01:29:20;0.87;;;0.70;;
80963;SDS011;70425;59.322;13.486;2023-06-10T01:32:15;0.70;;;0.70;;
80963;SDS011;70425;59.322;13.486;2023-06-10T01:35:12;0.60;;;0.60;;
80963;SDS011;70425;59.322;13.486;2023-06-10T01:41:50;0.70;;;0.70;;
80963;SDS011;70425;59.322;13.486;2023-06-10T01:44:42;0.50;;;0.50;;
80963;SDS011;70425;59.322;13.486;2023-06-10T01:47:33;1.17;;;0.60;;
80963;SDS011;70425;59.322;13.486;2023-06-10T01:50:24;0.50;;;0.50;;
80963;SDS011;70425;59.322;13.486;2023-06-10T03:26:07;0.70;;;0.70;;
80963;SDS011;70425;59.322;13.486;2023-06-10T03:50:04;0.63;;;0.50;;
80963;SDS011;70425;59.322;13.486;2023-06-10T04:12:36;1.20;;;1.00;;
80963;SDS011;70425;59.322;13.486;2023-06-10T04:23:33;1.43;;;1.00;;
80963;SDS011;70425;59.322;13.486;2023-06-10T04:49:48;1.10;;;0.90;;
80963;SDS011;70425;59.322;13.486;2023-06-10T05:00:28;1.53;;;0.50;;
80963;SDS011;70425;59.322;13.486;2023-06-10T05:27:00;0.70;;;0.70;;
80963;SDS011;70425;59.322;13.486;2023-06-10T05:37:38;1.23;;;0.67;;
80963;SDS011;70425;59.322;13.486;2023-06-10T06:46:53;0.57;;;0.57;;
80963;SDS011;70425;59.322;13.486;2023-06-10T06:53:31;0.60;;;0.60;;
80963;SDS011;70425;59.322;13.486;2023-06-10T06:57:05;1.13;;;0.70;;
80963;SDS011;70425;59.322;13.486;2023-06-10T07:03:53;0.70;;;0.70;;
80963;SDS011;70425;59.322;13.486;2023-06-10T07:07:14;0.83;;;0.60;;
80963;SDS011;70425;59.322;13.486;2023-06-10T07:10:14;0.60;;;0.60;;
80963;SDS011;70425;59.322;13.486;2023-06-10T07:13:15;0.73;;;0.73;;
80963;SDS011;70425;59.322;13.486;2023-06-10T07:16:26;2.43;;;0.60;;
80963;SDS011;70425;59.322;13.486;2023-06-10T07:30:00;0.47;;;0.47;;
80963;SDS011;70425;59.322;13.486;2023-06-10T17:46:22;2.10;;;0.97;;
80963;SDS011;70425;59.322;13.486;2023-06-10T17:49:11;1.20;;;1.10;;
80963;SDS011;70425;59.322;13.486;2023-06-10T19:10:38;2.47;;;1.10;;
80963;SDS011;70425;59.322;13.486;2023-06-10T19:13:26;1.47;;;1.10;;
80963;SDS011;70425;59.322;13.486;2023-06-10T19:16:15;4.10;;;1.10;;
80963;SDS011;70425;59.322;13.486;2023-06-10T19:19:04;9.63;;;1.30;;
80963;SDS011;70425;59.322;13.486;2023-06-10T19:21:53;1.80;;;1.17;;
80963;SDS011;70425;59.322;13.486;2023-06-10T19:24:41;2.10;;;1.23;;
80963;SDS011;70425;59.322;13.486;2023-06-10T19:27:32;5.07;;;1.20;;
80963;SDS011;70425;59.322;13.486;2023-06-10T19:30:20;4.13;;;1.23;;
80963;SDS011;70425;59.322;13.486;2023-06-10T19:33:09;1.27;;;1.17;;
80963;SDS011;70425;59.322;13.486;2023-06-10T19:35:57;3.77;;;1.23;;
80963;SDS011;70425;59.322;13.486;2023-06-10T19:38:46;1.23;;;1.10;;
80963;SDS011;70425;59.322;13.486;2023-06-10T19:41:34;3.33;;;1.50;;
80963;SDS011;70425;59.322;13.486;2023-06-10T19:44:24;3.90;;;1.40;;
80963;SDS011;70425;59.322;13.486;2023-06-10T19:47:13;4.87;;;1.70;;
80963;SDS011;70425;59.322;13.486;2023-06-10T20:16:21;10.50;;;1.80;;
80963;SDS011;70425;59.322;13.486;2023-06-10T21:04:51;1.50;;;1.40;;
80963;SDS011;70425;59.322;13.486;2023-06-10T21:07:41;3.10;;;1.30;;
80963;SDS011;70425;59.322;13.486;2023-06-10T21:10:32;2.17;;;1.33;;
80963;SDS011;70425;59.322;13.486;2023-06-10T21:13:21;2.50;;;1.30;;
80963;SDS011;70425;59.322;13.486;2023-06-10T21:16:11;1.83;;;1.33;;
80963;SDS011;70425;59.322;13.486;2023-06-10T21:19:00;5.30;;;1.13;;
80963;SDS011;70425;59.322;13.486;2023-06-10T21:21:48;1.37;;;1.27;;
80963;SDS011;70425;59.322;13.486;2023-06-10T21:24:37;1.60;;;1.30;;
80963;SDS011;70425;59.322;13.486;2023-06-10T21:27:26;1.57;;;1.47;;
80963;SDS011;70425;59.322;13.486;2023-06-10T21:30:15;2.00;;;1.30;;
80963;SDS011;70425;59.322;13.486;2023-06-10T21:33:04;2.63;;;1.60;;
80963;SDS011;70425;59.322;13.486;2023-06-10T21:35:56;1.67;;;1.20;;
80963;SDS011;70425;59.322;13.486;2023-06-10T21:38:52;2.03;;;1.53;;
80963;SDS011;70425;59.322;13.486;2023-06-10T21:42:10;1.30;;;1.20;;
80963;SDS011;70425;59.322;13.486;2023-06-10T21:45:08;1.83;;;1.40;;
80963;SDS011;70425;59.322;13.486;2023-06-10T21:48:19;1.83;;;1.30;;
80963;SDS011;70425;59.322;13.486;2023-06-10T21:51:11;1.30;;;1.20;;
80963;SDS011;70425;59.322;13.486;2023-06-10T21:54:02;1.37;;;1.20;;
80963;SDS011;70425;59.322;13.486;2023-06-10T21:56:53;1.17;;;1.17;;
80963;SDS011;70425;59.322;13.486;2023-06-10T21:59:43;1.57;;;1.47;;
80963;SDS011;70425;59.322;13.486;2023-06-10T22:46:50;3.13;;;1.33;;
80963;SDS011;70425;59.322;13.486;2023-06-10T22:49:40;2.33;;;1.20;;
80963;SDS011;70425;59.322;13.486;2023-06-10T22:52:28;2.70;;;1.17;;
80963;SDS011;70425;59.322;13.486;2023-06-10T22:55:17;4.00;;;1.50;;
80963;SDS011;70425;59.322;13.486;2023-06-10T22:58:06;5.07;;;1.33;;
80963;SDS011;70425;59.322;13.486;2023-06-10T23:00:55;1.67;;;1.17;;
80963;SDS011;70425;59.322;13.486;2023-06-10T23:03:44;1.93;;;1.33;;
80963;SDS011;70425;59.322;13.486;2023-06-10T23:06:33;2.20;;;1.50;;
80963;SDS011;70425;59.322;13.486;2023-06-10T23:09:24;1.40;;;1.30;;
80963;SDS011;70425;59.322;13.486;2023-06-10T23:12:13;2.17;;;1.17;;
80963;SDS011;70425;59.322;13.486;2023-06-10T23:15:03;1.40;;;1.30;;
80963;SDS011;70425;59.322;13.486;2023-06-10T23:17:52;2.50;;;1.20;;
80963;SDS011;70425;59.322;13.486;2023-06-10T23:20:43;2.13;;;1.10;;
80963;SDS011;70425;59.322;13.486;2023-06-10T23:23:32;1.37;;;1.10;;
80963;SDS011;70425;59.322;13.486;2023-06-10T23:43:26;4.03;;;1.93;;
80963;SDS011;70425;59.322;13.486;2023-06-10T23:46:14;0.80;;;0.80;;
80963;SDS011;70425;59.322;13.486;2023-06-10T23:49:03;2.37;;;1.20;;
80963;SDS011;70425;59.322;13.486;2023-06-10T23:51:55;1.30;;;1.20;;
80963;SDS011;70425;59.322;13.486;2023-06-10T23:54:46;1.30;;;1.20;;
80963;SDS011;70425;59.322;13.486;2023-06-10T23:57:35;1.10;;;1.10;;
